Time;durP1;ratioP1;P1;durP2;ratioP2;P2;SDS_P1;SDS_P2;PMS_P1;PMS_P2;Temp;Humidity;BMP_temperature;BMP_pressure;BME280_temperature;BME280_humidity;BME280_pressure;Samples;Min_cycle;Max_cycle;Signal;HPM_P1;HPM_P2
2024/03/31 00:02:21;;;;;;;12.00;3.25;;;25.20;45.30;;;;;;6159426;28;81502;-53
2024/03/31 00:05:21;;;;;;;13.18;3.50;;;25.20;45.30;;;;;;6159592;28;81782;-56
2024/03/31 00:08:22;;;;;;;11.43;2.83;;;25.20;45.40;;;;;;6142751;28;81589;-56
2024/03/31 00:11:22;;;;;;;10.50;2.85;;;25.20;45.30;;;;;;6157018;28;81155;-55
2024/03/31 00:14:24;;;;;;;10.40;2.72;;;25.20;45.40;;;;;;6159790;28;81799;-56
2024/03/31 00:17:25;;;;;;;10.90;3.10;;;25.20;45.50;;;;;;6154982;28;81941;-53
2024/03/31 00:20:26;;;;;;;13.27;3.40;;;25.20;45.50;;;;;;6158785;28;81633;-54
2024/03/31 00:23:26;;;;;;;8.50;3.08;;;25.20;45.80;;;;;;6159551;28;81953;-52
2024/03/31 00:26:27;;;;;;;12.73;3.13;;;25.20;45.90;;;;;;6141378;28;81393;-52
2024/03/31 00:29:29;;;;;;;7.22;2.58;;;25.20;46.10;;;;;;6150194;28;81536;-53
2024/03/31 00:32:29;;;;;;;11.60;2.95;;;25.20;46.10;;;;;;6159799;28;81219;-53
2024/03/31 00:35:30;;;;;;;7.82;2.63;;;25.20;46.10;;;;;;6160879;28;81714;-52
2024/03/31 00:38:30;;;;;;;14.68;3.50;;;25.20;46.10;;;;;;6155370;28;81743;-56
2024/03/31 00:41:31;;;;;;;11.80;3.05;;;25.20;46.20;;;;;;6159728;28;82550;-55
2024/03/31 00:44:31;;;;;;;8.10;3.13;;;25.20;46.30;;;;;;6157220;28;81254;-57
2024/03/31 00:47:32;;;;;;;6.75;2.75;;;25.30;46.20;;;;;;6152605;28;81517;-57
2024/03/31 00:50:32;;;;;;;8.57;2.80;;;25.20;46.20;;;;;;6158490;28;81930;-55
2024/03/31 00:53:33;;;;;;;8.20;2.65;;;25.20;46.10;;;;;;6156915;28;81300;-57
2024/03/31 00:56:33;;;;;;;12.93;3.08;;;25.20;46.20;;;;;;6146228;28;81478;-56
2024/03/31 00:59:34;;;;;;;14.60;3.70;;;25.20;46.20;;;;;;6149964;28;81433;-53
2024/03/31 01:02:34;;;;;;;13.40;3.97;;;25.20;46.20;;;;;;6155612;28;83565;-53
2024/03/31 01:05:35;;;;;;;9.75;2.95;;;25.30;46.40;;;;;;6160988;28;80912;-55
2024/03/31 01:08:35;;;;;;;9.05;3.15;;;25.20;46.30;;;;;;6160994;28;80317;-55
2024/03/31 01:11:36;;;;;;;11.27;3.25;;;25.30;46.20;;;;;;6153174;28;80671;-53
2024/03/31 01:14:37;;;;;;;7.03;2.72;;;25.20;46.30;;;;;;6151578;28;82208;-54
2024/03/31 01:17:38;;;;;;;8.55;3.10;;;25.20;46.30;;;;;;6153628;28;80378;-56
2024/03/31 01:20:38;;;;;;;10.82;2.88;;;25.20;46.20;;;;;;6151938;28;80428;-54
2024/03/31 01:23:39;;;;;;;10.77;3.35;;;25.20;46.20;;;;;;6153107;28;80315;-56
2024/03/31 01:26:39;;;;;;;6.25;2.55;;;25.20;46.20;;;;;;6152833;28;80727;-56
2024/03/31 01:29:40;;;;;;;7.70;3.42;;;25.20;46.20;;;;;;6153121;28;80444;-57
2024/03/31 01:32:40;;;;;;;7.28;3.00;;;25.20;46.10;;;;;;6151527;28;83030;-58
2024/03/31 01:35:41;;;;;;;6.90;2.55;;;25.20;46.20;;;;;;6152621;28;81141;-57
2024/03/31 01:38:41;;;;;;;10.30;3.10;;;25.20;46.20;;;;;;6154271;28;80305;-56
2024/03/31 01:41:44;;;;;;;9.02;2.85;;;25.20;46.00;;;;;;6152757;28;81268;-55
2024/03/31 01:44:45;;;;;;;11.77;2.90;;;25.20;46.10;;;;;;6153067;28;81067;-55
2024/03/31 01:47:45;;;;;;;9.90;2.47;;;25.20;46.10;;;;;;6152702;28;80956;-54
2024/03/31 01:50:46;;;;;;;11.60;3.08;;;25.20;46.10;;;;;;6155483;28;83775;-53
2024/03/31 01:53:46;;;;;;;9.35;3.45;;;25.20;46.10;;;;;;6151556;28;81481;-55
2024/03/31 01:56:48;;;;;;;7.47;2.90;;;25.30;46.10;;;;;;6152293;28;80247;-55
2024/03/31 01:59:48;;;;;;;8.35;2.83;;;25.30;46.10;;;;;;6150152;28;83718;-54
2024/03/31 02:02:49;;;;;;;7.72;2.67;;;25.20;46.20;;;;;;6152306;28;82807;-57
2024/03/31 02:05:49;;;;;;;11.60;2.78;;;25.20;46.30;;;;;;6160506;28;83569;-57
2024/03/31 02:08:50;;;;;;;6.13;2.67;;;25.30;46.30;;;;;;6158547;28;81564;-56
2024/03/31 02:11:50;;;;;;;14.23;3.50;;;25.20;46.10;;;;;;6151627;28;80344;-56
2024/03/31 02:14:51;;;;;;;6.45;2.40;;;25.20;46.20;;;;;;6151814;28;80613;-56
2024/03/31 02:17:51;;;;;;;8.02;2.30;;;25.20;46.30;;;;;;6164222;28;80732;-54
2024/03/31 02:20:52;;;;;;;11.32;3.30;;;25.20;46.20;;;;;;6151941;28;82185;-55
2024/03/31 02:23:53;;;;;;;8.70;2.55;;;25.20;46.20;;;;;;6151372;28;81718;-56
2024/03/31 02:26:53;;;;;;;7.68;2.88;;;25.20;46.30;;;;;;6129905;28;80754;-51
2024/03/31 02:29:54;;;;;;;6.00;2.78;;;25.20;46.40;;;;;;6150777;28;80483;-56
2024/03/31 02:32:54;;;;;;;8.73;2.65;;;25.20;46.30;;;;;;6150724;28;80525;-58
2024/03/31 02:35:55;;;;;;;6.88;2.53;;;25.20;46.50;;;;;;6149920;28;83263;-58
2024/03/31 02:38:56;;;;;;;6.05;2.30;;;25.20;46.50;;;;;;6150446;28;82287;-57
2024/03/31 02:41:57;;;;;;;6.60;2.53;;;25.20;46.40;;;;;;6152219;28;81461;-57
2024/03/31 02:44:57;;;;;;;9.55;2.42;;;25.20;46.20;;;;;;6159216;28;82843;-57
2024/03/31 02:47:58;;;;;;;13.27;3.20;;;25.20;46.30;;;;;;6152421;28;83656;-57
2024/03/31 02:50:59;;;;;;;11.50;3.00;;;25.20;46.40;;;;;;6149110;28;82597;-53
2024/03/31 02:53:59;;;;;;;8.02;2.70;;;25.20;46.30;;;;;;6162922;28;83650;-51
2024/03/31 02:57:00;;;;;;;10.73;3.20;;;25.20;46.30;;;;;;6150011;28;87251;-56
2024/03/31 03:00:00;;;;;;;10.15;3.22;;;25.20;46.20;;;;;;6149753;28;83286;-50
2024/03/31 03:03:01;;;;;;;11.30;2.58;;;25.20;46.70;;;;;;6150707;28;82543;-53
2024/03/31 03:06:02;;;;;;;7.88;2.72;;;25.20;46.30;;;;;;6162671;28;82205;-56
2024/03/31 03:09:04;;;;;;;7.53;2.38;;;25.20;46.50;;;;;;6154013;28;83350;-55
2024/03/31 03:12:05;;;;;;;8.32;2.80;;;25.20;46.30;;;;;;6151009;28;80284;-57
2024/03/31 03:15:05;;;;;;;7.32;3.13;;;25.20;46.30;;;;;;6149673;28;83382;-56
2024/03/31 03:18:06;;;;;;;7.53;2.92;;;25.20;46.30;;;;;;6150755;28;80568;-56
2024/03/31 03:21:06;;;;;;;8.75;2.80;;;25.20;46.20;;;;;;6150942;28;80952;-56
2024/03/31 03:24:07;;;;;;;8.57;2.88;;;25.20;46.40;;;;;;6176136;28;83021;-56
2024/03/31 03:27:07;;;;;;;10.68;2.95;;;25.20;46.10;;;;;;6175716;28;83424;-56
2024/03/31 03:30:08;;;;;;;10.35;2.58;;;25.20;46.30;;;;;;6168565;28;83263;-56
2024/03/31 03:33:11;;;;;;;8.93;2.22;;;25.20;46.10;;;;;;6153564;28;81868;-57
2024/03/31 03:36:12;;;;;;;7.00;2.15;;;25.20;46.20;;;;;;6154282;28;80364;-58
2024/03/31 03:39:12;;;;;;;6.28;2.45;;;25.20;46.40;;;;;;6154874;28;82229;-56
2024/03/31 03:42:13;;;;;;;7.20;2.65;;;25.20;46.40;;;;;;6155979;28;81435;-58
2024/03/31 03:45:14;;;;;;;14.18;3.35;;;25.20;46.20;;;;;;6168519;28;81963;-57
2024/03/31 03:48:14;;;;;;;8.50;2.55;;;25.20;46.10;;;;;;6164940;28;83725;-57
2024/03/31 03:51:15;;;;;;;5.93;2.58;;;25.10;46.00;;;;;;6165221;28;81843;-57
2024/03/31 03:54:17;;;;;;;8.25;3.47;;;25.10;46.00;;;;;;6153786;28;83321;-57
2024/03/31 03:57:17;;;;;;;6.95;2.83;;;25.10;46.00;;;;;;6167431;28;81774;-54
2024/03/31 04:00:18;;;;;;;7.10;2.65;;;25.10;46.00;;;;;;6153596;28;83659;-54
2024/03/31 04:03:20;;;;;;;10.88;2.75;;;25.10;45.90;;;;;;6154195;28;81523;-57
2024/03/31 04:06:21;;;;;;;5.93;2.40;;;25.10;45.90;;;;;;6168327;28;83869;-55
2024/03/31 04:09:22;;;;;;;7.47;2.88;;;25.10;45.90;;;;;;6154982;28;83984;-57
2024/03/31 04:12:22;;;;;;;8.52;2.67;;;25.20;46.70;;;;;;6154555;28;80795;-58
2024/03/31 04:15:23;;;;;;;9.32;2.42;;;25.10;46.00;;;;;;6154210;28;81457;-57
2024/03/31 04:18:23;;;;;;;10.18;2.90;;;25.10;46.00;;;;;;6153224;28;83345;-50
2024/03/31 04:21:24;;;;;;;5.72;2.15;;;25.20;46.20;;;;;;6152835;28;83560;-55
2024/03/31 04:24:24;;;;;;;5.20;2.60;;;25.20;46.30;;;;;;6154520;28;86970;-53
2024/03/31 04:27:25;;;;;;;9.35;2.47;;;25.20;46.10;;;;;;6154836;28;81576;-53
2024/03/31 04:30:25;;;;;;;4.68;1.92;;;25.20;46.10;;;;;;6152682;28;83085;-56
2024/03/31 04:33:26;;;;;;;3.83;1.90;;;25.20;46.20;;;;;;6154273;28;81319;-58
2024/03/31 04:36:26;;;;;;;9.57;2.50;;;25.20;46.10;;;;;;6153947;28;80939;-56
2024/03/31 04:39:27;;;;;;;7.38;2.25;;;25.20;46.30;;;;;;6158664;28;82827;-55
2024/03/31 04:42:27;;;;;;;6.10;2.20;;;25.20;46.50;;;;;;6154548;28;83528;-51
2024/03/31 04:45:28;;;;;;;5.72;2.08;;;25.20;46.30;;;;;;6162236;28;83376;-55
2024/03/31 04:48:29;;;;;;;5.60;1.63;;;25.20;46.20;;;;;;6153044;28;82314;-56
2024/03/31 04:51:29;;;;;;;5.35;2.35;;;25.20;46.30;;;;;;6151680;28;83431;-53
2024/03/31 04:54:31;;;;;;;4.90;1.98;;;25.20;46.20;;;;;;6152844;28;83184;-54
2024/03/31 04:57:31;;;;;;;5.63;2.22;;;25.20;46.20;;;;;;6151686;28;83296;-50
2024/03/31 05:00:32;;;;;;;4.55;1.40;;;25.20;46.20;;;;;;6152571;28;83330;-52
2024/03/31 05:03:33;;;;;;;4.60;2.33;;;25.20;46.30;;;;;;6149657;28;83099;-54
2024/03/31 05:06:34;;;;;;;7.20;2.70;;;25.20;46.50;;;;;;6145596;28;83582;-55
2024/03/31 05:09:34;;;;;;;8.45;2.42;;;25.20;46.40;;;;;;6149855;28;83349;-55
2024/03/31 05:12:35;;;;;;;5.00;2.35;;;25.20;46.60;;;;;;6152466;28;83616;-57
2024/03/31 05:15:36;;;;;;;4.28;1.90;;;25.20;46.50;;;;;;6163979;28;83443;-58
2024/03/31 05:18:36;;;;;;;7.18;1.83;;;25.20;46.40;;;;;;6163471;28;83454;-55
2024/03/31 05:21:39;;;;;;;14.38;2.20;;;25.20;46.40;;;;;;6155370;28;83140;-57
2024/03/31 05:24:40;;;;;;;5.97;2.03;;;25.20;46.40;;;;;;6155831;28;81814;-57
2024/03/31 05:27:41;;;;;;;4.93;2.20;;;25.20;46.50;;;;;;6159232;28;83426;-55
2024/03/31 05:30:41;;;;;;;4.03;1.90;;;25.20;46.40;;;;;;6156490;28;81735;-54
2024/03/31 05:33:42;;;;;;;7.90;2.25;;;25.20;46.60;;;;;;6151488;28;84401;-54
2024/03/31 05:36:43;;;;;;;4.38;1.85;;;25.20;46.60;;;;;;6150836;28;82339;-57
2024/03/31 05:39:43;;;;;;;6.03;1.75;;;25.20;46.50;;;;;;6134807;28;83499;-59
2024/03/31 05:42:44;;;;;;;6.88;2.03;;;25.20;47.20;;;;;;6158014;28;81413;-56
2024/03/31 05:45:44;;;;;;;4.53;2.10;;;25.20;46.80;;;;;;6159534;28;82811;-54
2024/03/31 05:48:45;;;;;;;12.25;2.10;;;25.20;46.70;;;;;;6158433;28;82677;-56
2024/03/31 05:51:46;;;;;;;4.85;1.63;;;25.20;47.00;;;;;;6153370;28;81445;-58
2024/03/31 05:54:47;;;;;;;2.55;1.48;;;25.20;46.60;;;;;;6163208;28;83462;-56
2024/03/31 05:57:47;;;;;;;7.13;2.35;;;25.20;46.70;;;;;;6152224;28;83249;-53
2024/03/31 06:00:48;;;;;;;5.57;2.08;;;25.20;46.50;;;;;;6158206;28;81308;-53
2024/03/31 06:03:53;;;;;;;7.38;2.10;;;25.30;46.80;;;;;;6156370;28;83607;-57
2024/03/31 06:06:53;;;;;;;3.10;1.67;;;25.30;46.60;;;;;;6147575;28;83091;-54
2024/03/31 06:09:54;;;;;;;3.10;1.70;;;25.30;46.40;;;;;;6162621;28;84209;-56
2024/03/31 06:12:55;;;;;;;7.88;1.85;;;25.30;46.60;;;;;;6173706;28;82314;-60
2024/03/31 06:15:56;;;;;;;4.50;1.73;;;25.30;46.70;;;;;;6149295;28;83353;-56
2024/03/31 06:18:56;;;;;;;4.93;1.90;;;25.30;47.10;;;;;;6150497;28;83238;-57
2024/03/31 06:21:57;;;;;;;5.75;2.15;;;25.30;46.80;;;;;;6148558;28;83210;-56
2024/03/31 06:24:58;;;;;;;2.95;1.63;;;25.40;46.80;;;;;;6150865;28;80781;-55
2024/03/31 06:27:58;;;;;;;6.22;2.38;;;25.40;47.00;;;;;;6155747;28;83188;-56
2024/03/31 06:30:59;;;;;;;2.70;1.42;;;25.40;47.10;;;;;;6141904;28;82981;-54
2024/03/31 06:34:00;;;;;;;6.43;2.55;;;25.40;47.00;;;;;;6154874;28;83525;-51
2024/03/31 06:37:01;;;;;;;6.75;1.60;;;25.40;47.00;;;;;;6156532;28;81208;-55
2024/03/31 06:40:02;;;;;;;4.85;1.70;;;25.40;46.90;;;;;;6154783;28;82104;-51
2024/03/31 06:43:05;;;;;;;6.68;2.58;;;25.30;46.90;;;;;;6150810;28;82343;-57
2024/03/31 06:46:06;;;;;;;4.75;2.15;;;25.40;47.60;;;;;;6152186;28;82164;-52
2024/03/31 06:49:07;;;;;;;6.85;2.10;;;25.40;47.70;;;;;;6152967;28;83489;-54
2024/03/31 06:52:08;;;;;;;8.93;1.77;;;25.50;48.00;;;;;;6150515;28;81767;-51
2024/03/31 06:55:09;;;;;;;7.20;2.45;;;25.50;48.50;;;;;;6152544;28;81643;-55
2024/03/31 06:58:09;;;;;;;4.75;1.90;;;25.50;48.90;;;;;;6155495;28;82899;-54
2024/03/31 07:01:10;;;;;;;4.97;2.55;;;25.50;48.80;;;;;;6158410;28;83326;-54
2024/03/31 07:04:12;;;;;;;6.53;1.58;;;25.60;49.70;;;;;;6158706;28;83933;-52
2024/03/31 07:07:13;;;;;;;6.38;1.73;;;25.50;48.80;;;;;;6153957;28;82545;-51
2024/03/31 07:10:15;;;;;;;4.85;1.90;;;25.50;48.90;;;;;;6158244;28;81643;-62
2024/03/31 07:13:16;;;;;;;7.68;1.70;;;25.60;48.80;;;;;;6155760;28;83703;-60
2024/03/31 07:16:17;;;;;;;8.32;2.67;;;25.60;48.80;;;;;;6142349;28;83117;-62
2024/03/31 07:19:18;;;;;;;3.95;1.52;;;25.60;48.60;;;;;;6143478;28;83165;-62
2024/03/31 07:22:18;;;;;;;6.35;1.92;;;25.60;48.40;;;;;;6158698;28;81781;-61
2024/03/31 07:25:19;;;;;;;6.90;2.10;;;25.60;48.50;;;;;;6153330;28;82116;-60
2024/03/31 07:28:19;;;;;;;3.35;1.33;;;25.60;48.40;;;;;;6153647;28;81780;-61
2024/03/31 07:31:20;;;;;;;5.75;2.28;;;25.60;48.30;;;;;;6145268;28;80705;-61
2024/03/31 07:34:21;;;;;;;4.25;1.95;;;25.60;48.30;;;;;;6155615;28;82567;-60
2024/03/31 07:37:21;;;;;;;5.05;1.73;;;25.60;48.20;;;;;;6142092;28;83031;-59
2024/03/31 07:40:22;;;;;;;7.85;1.73;;;25.70;48.10;;;;;;6134995;28;81451;-60
2024/03/31 07:43:22;;;;;;;7.50;1.70;;;25.70;48.30;;;;;;6136227;28;81731;-62
2024/03/31 07:46:22;;;;;;;7.32;2.03;;;25.70;48.20;;;;;;6134805;28;86537;-60
2024/03/31 07:49:23;;;;;;;5.75;1.50;;;25.70;48.10;;;;;;6156260;28;81362;-60
2024/03/31 07:52:23;;;;;;;6.80;2.35;;;25.70;48.10;;;;;;6146132;28;83092;-60
2024/03/31 07:55:24;;;;;;;3.05;1.70;;;25.70;47.90;;;;;;6162563;28;80936;-61
2024/03/31 07:58:24;;;;;;;2.33;1.52;;;25.70;47.60;;;;;;6157442;28;86242;-56
2024/03/31 08:01:25;;;;;;;6.55;2.38;;;25.70;47.70;;;;;;6159281;28;80399;-60
2024/03/31 08:04:25;;;;;;;9.65;2.25;;;25.80;46.60;;;;;;6155401;28;80216;-58
2024/03/31 08:07:26;;;;;;;8.30;2.60;;;25.80;46.60;;;;;;6160017;28;80504;-59
2024/03/31 08:10:26;;;;;;;5.82;2.45;;;25.80;46.50;;;;;;6162519;28;80573;-60
2024/03/31 08:13:27;;;;;;;5.15;2.05;;;25.80;46.30;;;;;;6143393;28;83124;-60
2024/03/31 08:16:27;;;;;;;8.85;2.00;;;25.80;46.50;;;;;;6166876;28;81852;-60
2024/03/31 08:19:28;;;;;;;8.35;2.88;;;25.80;46.40;;;;;;6168465;28;80446;-60
2024/03/31 08:22:28;;;;;;;8.18;2.30;;;25.80;46.40;;;;;;6169007;28;84352;-59
2024/03/31 08:25:29;;;;;;;12.43;3.17;;;25.90;46.30;;;;;;6168110;28;80280;-60
2024/03/31 08:28:29;;;;;;;9.50;2.50;;;25.80;45.60;;;;;;6158308;28;82806;-59
2024/03/31 08:31:30;;;;;;;11.60;2.97;;;25.70;43.80;;;;;;6162971;28;80414;-61
2024/03/31 08:34:30;;;;;;;17.98;3.50;;;25.70;41.50;;;;;;6154678;28;81468;-59
2024/03/31 08:37:31;;;;;;;14.40;3.30;;;25.60;38.70;;;;;;6153433;28;80578;-59
2024/03/31 08:40:31;;;;;;;17.75;3.28;;;25.60;39.30;;;;;;6158159;28;81970;-57
2024/03/31 08:43:32;;;;;;;12.20;3.63;;;25.60;38.20;;;;;;6164866;28;81453;-56
2024/03/31 08:46:32;;;;;;;15.93;3.72;;;25.60;37.90;;;;;;6155923;28;80607;-59
2024/03/31 08:49:33;;;;;;;20.45;4.22;;;25.70;37.10;;;;;;6103023;28;1390281;-59
2024/03/31 08:52:34;;;;;;;17.45;3.83;;;25.70;36.60;;;;;;6158683;28;80057;-58
2024/03/31 08:55:34;;;;;;;22.48;3.22;;;25.70;37.70;;;;;;6155908;28;80134;-59
2024/03/31 08:58:38;;;;;;;26.63;4.07;;;25.70;36.80;;;;;;6156708;28;80592;-53
2024/03/31 09:01:39;;;;;;;20.77;4.57;;;25.70;36.60;;;;;;6155515;28;80880;-54
2024/03/31 09:04:39;;;;;;;23.38;4.10;;;25.80;36.30;;;;;;6152048;28;82272;-54
2024/03/31 09:07:40;;;;;;;18.02;3.80;;;25.80;36.60;;;;;;6168052;28;80680;-54
2024/03/31 09:10:40;;;;;;;20.85;4.75;;;25.80;36.30;;;;;;6155038;28;80987;-58
2024/03/31 09:13:41;;;;;;;16.23;4.07;;;25.80;36.30;;;;;;6155241;28;80722;-55
2024/03/31 09:16:41;;;;;;;23.73;3.70;;;25.90;36.20;;;;;;6153500;28;80532;-57
2024/03/31 09:19:42;;;;;;;25.17;4.18;;;25.90;36.40;;;;;;6152102;28;81900;-56
2024/03/31 09:22:42;;;;;;;24.75;4.15;;;25.90;36.80;;;;;;6154776;28;80901;-55
2024/03/31 09:25:43;;;;;;;14.20;3.65;;;25.90;36.40;;;;;;6156480;28;80478;-56
2024/03/31 09:28:43;;;;;;;13.48;3.35;;;25.90;36.80;;;;;;6152654;28;80994;-56
2024/03/31 09:31:44;;;;;;;26.08;3.33;;;25.90;37.00;;;;;;6155199;28;80721;-55
2024/03/31 09:34:44;;;;;;;26.13;4.78;;;25.90;36.80;;;;;;6152835;28;83244;-57
2024/03/31 09:37:45;;;;;;;20.58;3.97;;;25.90;36.80;;;;;;6156707;28;81367;-60
2024/03/31 09:40:45;;;;;;;12.75;4.38;;;25.90;36.90;;;;;;6155287;28;81254;-60
2024/03/31 09:43:46;;;;;;;28.38;4.72;;;25.90;36.60;;;;;;6156207;28;80476;-60
2024/03/31 09:46:46;;;;;;;30.75;4.22;;;25.90;36.50;;;;;;6152076;28;80845;-59
2024/03/31 09:49:47;;;;;;;23.05;5.10;;;25.90;36.10;;;;;;6155233;28;80281;-60
2024/03/31 09:52:47;;;;;;;23.50;5.03;;;25.90;36.30;;;;;;6154095;28;83177;-58
2024/03/31 09:55:48;;;;;;;27.63;5.78;;;25.90;36.40;;;;;;6160389;28;80331;-60
2024/03/31 09:58:48;;;;;;;30.30;4.75;;;25.90;36.30;;;;;;6160479;28;80292;-61
2024/03/31 10:01:49;;;;;;;21.38;4.70;;;25.90;36.40;;;;;;6151763;28;82392;-59
2024/03/31 10:04:49;;;;;;;26.75;5.47;;;25.90;36.60;;;;;;6156334;28;81300;-59
2024/03/31 10:07:50;;;;;;;32.45;4.97;;;25.90;36.20;;;;;;6153648;28;81256;-59
2024/03/31 10:10:50;;;;;;;36.60;6.32;;;25.90;36.20;;;;;;6159436;28;80641;-59
2024/03/31 10:13:51;;;;;;;37.05;7.38;;;25.90;36.20;;;;;;6153910;28;80018;-54
2024/03/31 10:16:51;;;;;;;32.42;6.03;;;26.00;35.10;;;;;;6158245;28;80727;-55
2024/03/31 10:19:52;;;;;;;39.95;6.05;;;25.90;34.80;;;;;;6166416;28;80329;-55
2024/03/31 10:22:53;;;;;;;30.45;5.90;;;26.00;35.10;;;;;;6157684;28;85845;-57
2024/03/31 10:25:54;;;;;;;28.48;6.25;;;25.90;35.30;;;;;;6160776;28;82872;-57
2024/03/31 10:28:54;;;;;;;32.22;6.78;;;26.00;35.70;;;;;;6169597;28;80223;-57
2024/03/31 10:31:55;;;;;;;38.13;7.68;;;26.00;35.80;;;;;;6170760;28;80637;-53
2024/03/31 10:34:55;;;;;;;38.42;6.28;;;26.00;35.70;;;;;;6167707;28;80905;-58
2024/03/31 10:37:56;;;;;;;26.67;6.05;;;26.00;35.80;;;;;;6157002;28;80257;-56
2024/03/31 10:40:56;;;;;;;30.95;5.70;;;26.10;36.10;;;;;;6153446;28;81033;-56
2024/03/31 10:43:57;;;;;;;38.70;6.88;;;26.10;36.30;;;;;;6150969;28;82102;-54
2024/03/31 10:46:57;;;;;;;30.55;6.28;;;26.20;36.50;;;;;;6151301;28;81567;-57
2024/03/31 10:49:58;;;;;;;30.52;5.75;;;26.20;36.70;;;;;;6143563;28;80470;-60
2024/03/31 10:52:58;;;;;;;39.72;6.53;;;26.20;36.90;;;;;;6167498;28;84077;-59
2024/03/31 10:55:59;;;;;;;32.50;6.22;;;26.20;36.80;;;;;;6163512;28;81655;-63
2024/03/31 10:58:59;;;;;;;33.33;5.70;;;26.30;37.20;;;;;;6138300;28;87545;-64
2024/03/31 11:02:00;;;;;;;22.80;5.65;;;26.20;38.30;;;;;;6137435;28;83720;-60
2024/03/31 11:05:00;;;;;;;37.95;6.35;;;26.30;38.50;;;;;;6154024;28;81575;-61
2024/03/31 11:08:02;;;;;;;30.13;6.22;;;26.30;38.70;;;;;;6143734;28;85203;-56
2024/03/31 11:11:03;;;;;;;34.45;6.40;;;26.40;39.30;;;;;;6159153;28;81212;-54
2024/03/31 11:14:03;;;;;;;29.00;5.70;;;26.40;39.80;;;;;;6150322;28;80316;-57
2024/03/31 11:17:04;;;;;;;27.90;6.03;;;26.40;39.60;;;;;;6151341;28;81288;-56
2024/03/31 11:20:04;;;;;;;35.22;5.82;;;26.50;40.00;;;;;;6153406;28;83438;-54
2024/03/31 11:23:05;;;;;;;44.15;6.38;;;26.50;40.10;;;;;;6145044;28;85456;-55
2024/03/31 11:26:05;;;;;;;33.17;6.30;;;26.50;40.00;;;;;;6152236;28;81942;-62
2024/03/31 11:29:06;;;;;;;37.42;7.03;;;26.60;39.90;;;;;;6144959;28;81805;-59
2024/03/31 11:32:06;;;;;;;30.00;5.47;;;26.60;39.40;;;;;;6159856;28;80544;-62
2024/03/31 11:35:07;;;;;;;37.08;6.65;;;26.60;39.90;;;;;;6151019;28;83867;-60
2024/03/31 11:38:08;;;;;;;37.45;7.35;;;26.50;39.80;;;;;;6149945;28;84792;-61
2024/03/31 11:41:08;;;;;;;56.17;9.30;;;26.60;39.00;;;;;;6150892;28;80687;-61
2024/03/31 11:44:09;;;;;;;64.78;12.75;;;26.50;37.70;;;;;;6151727;28;81913;-60
2024/03/31 11:47:10;;;;;;;88.53;13.50;;;26.50;36.30;;;;;;6150661;28;83920;-60
2024/03/31 11:50:10;;;;;;;97.38;14.25;;;26.50;34.40;;;;;;6155000;28;84597;-60
2024/03/31 11:53:11;;;;;;;79.93;14.43;;;26.50;33.60;;;;;;6151615;28;83850;-61
2024/03/31 11:56:11;;;;;;;95.93;15.98;;;26.50;33.00;;;;;;6152358;28;83738;-61
2024/03/31 11:59:12;;;;;;;83.32;14.63;;;26.50;32.80;;;;;;6152239;28;83779;-61
2024/03/31 12:02:12;;;;;;;91.90;15.23;;;26.50;32.40;;;;;;6153895;28;83546;-60
2024/03/31 12:05:13;;;;;;;91.63;16.55;;;26.60;32.60;;;;;;6154513;28;83409;-54
2024/03/31 12:08:13;;;;;;;89.68;14.43;;;26.60;32.60;;;;;;6161443;28;83837;-56
2024/03/31 12:11:14;;;;;;;82.60;14.05;;;26.60;32.90;;;;;;6152649;28;84136;-56
2024/03/31 12:14:15;;;;;;;87.13;14.38;;;26.70;33.30;;;;;;6166849;28;83253;-55
2024/03/31 12:17:15;;;;;;;82.78;14.00;;;26.70;33.10;;;;;;6156357;28;88624;-56
2024/03/31 12:20:19;;;;;;;82.35;13.85;;;26.70;33.20;;;;;;6150614;28;84322;-57
2024/03/31 12:23:20;;;;;;;88.10;14.15;;;26.70;32.80;;;;;;6155906;28;86172;-55
2024/03/31 12:26:21;;;;;;;91.78;13.88;;;26.60;32.80;;;;;;6155344;28;83153;-57
2024/03/31 12:29:22;;;;;;;99.30;15.98;;;26.60;32.80;;;;;;6156364;28;86426;-54
2024/03/31 12:32:22;;;;;;;93.88;14.32;;;26.60;32.60;;;;;;6149695;28;84436;-58
2024/03/31 12:35:23;;;;;;;111.97;16.05;;;26.60;32.60;;;;;;6152319;28;83054;-59
2024/03/31 12:38:25;;;;;;;88.65;13.93;;;26.60;32.50;;;;;;6152469;28;83337;-58
2024/03/31 12:41:25;;;;;;;83.18;14.95;;;26.60;32.40;;;;;;6152260;28;83226;-56
2024/03/31 12:44:26;;;;;;;76.82;14.30;;;26.50;32.60;;;;;;6151500;28;83161;-57
2024/03/31 12:47:26;;;;;;;93.63;13.77;;;26.50;32.30;;;;;;6149596;28;84359;-57
2024/03/31 12:50:27;;;;;;;101.10;14.63;;;26.50;32.30;;;;;;6150479;28;83031;-57
2024/03/31 12:53:27;;;;;;;80.35;14.40;;;26.50;32.60;;;;;;6151980;28;84198;-56
2024/03/31 12:56:28;;;;;;;95.28;14.02;;;26.50;32.70;;;;;;6155101;28;83227;-59
2024/03/31 12:59:28;;;;;;;78.88;14.40;;;26.50;32.90;;;;;;6153687;28;84118;-57
2024/03/31 13:02:29;;;;;;;95.22;15.82;;;26.50;32.50;;;;;;6149403;28;87905;-58
2024/03/31 13:05:29;;;;;;;95.57;14.75;;;26.40;32.20;;;;;;6162554;28;83773;-56
2024/03/31 13:08:30;;;;;;;95.63;14.48;;;26.30;31.80;;;;;;6160107;28;83101;-58
2024/03/31 13:11:30;;;;;;;97.40;16.73;;;26.30;31.70;;;;;;6165243;28;83081;-53
2024/03/31 13:14:31;;;;;;;106.25;16.27;;;26.20;31.40;;;;;;6151817;28;83526;-55
2024/03/31 13:17:32;;;;;;;91.40;15.38;;;26.20;31.70;;;;;;6150161;28;83446;-60
2024/03/31 13:20:32;;;;;;;79.63;14.25;;;26.30;32.50;;;;;;6149268;28;83285;-63
2024/03/31 13:23:33;;;;;;;87.97;13.18;;;26.30;33.40;;;;;;6149620;28;83371;-61
2024/03/31 13:26:33;;;;;;;85.68;15.18;;;26.40;34.00;;;;;;6148559;28;83083;-62
2024/03/31 13:29:34;;;;;;;77.40;13.93;;;26.40;34.60;;;;;;6149202;28;82926;-63
2024/03/31 13:32:34;;;;;;;87.30;16.17;;;26.50;33.80;;;;;;6150126;28;83272;-63
2024/03/31 13:35:35;;;;;;;98.97;15.73;;;26.50;33.30;;;;;;6151240;28;83236;-62
2024/03/31 13:38:36;;;;;;;94.63;17.48;;;26.50;33.70;;;;;;6149305;28;83710;-61
2024/03/31 13:41:37;;;;;;;87.47;14.55;;;26.50;33.10;;;;;;6143542;28;84383;-60
2024/03/31 13:44:37;;;;;;;91.22;16.75;;;26.40;33.50;;;;;;6155033;28;82938;-65
2024/03/31 13:47:38;;;;;;;91.28;14.93;;;26.40;33.00;;;;;;6144451;28;84925;-64
2024/03/31 13:50:38;;;;;;;95.97;15.40;;;26.30;33.00;;;;;;6158469;28;82891;-64
2024/03/31 13:53:39;;;;;;;86.95;16.25;;;26.40;32.90;;;;;;6157066;28;84661;-65
2024/03/31 13:56:39;;;;;;;87.50;15.65;;;26.30;33.00;;;;;;6153470;28;83997;-63
2024/03/31 13:59:40;;;;;;;89.85;14.13;;;26.30;33.00;;;;;;6152784;28;83889;-64
2024/03/31 14:02:40;;;;;;;84.93;14.40;;;26.30;33.40;;;;;;6159543;28;83309;-65
2024/03/31 14:05:41;;;;;;;73.13;13.20;;;26.40;33.40;;;;;;6144605;28;83552;-66
2024/03/31 14:08:41;;;;;;;91.13;15.25;;;26.30;33.30;;;;;;6156074;28;84324;-63
2024/03/31 14:11:42;;;;;;;91.70;15.15;;;26.30;33.10;;;;;;6139570;28;83950;-66
2024/03/31 14:14:43;;;;;;;82.97;14.73;;;26.20;33.00;;;;;;6153808;28;83680;-65
2024/03/31 14:17:43;;;;;;;116.15;14.15;;;26.20;33.20;;;;;;6155486;28;84219;-64
2024/03/31 14:20:44;;;;;;;90.00;14.95;;;26.20;33.20;;;;;;6158093;28;83922;-65
2024/03/31 14:23:44;;;;;;;84.35;14.75;;;26.20;33.40;;;;;;6155407;28;84603;-64
2024/03/31 14:26:45;;;;;;;83.97;14.85;;;26.20;33.30;;;;;;6146792;28;83995;-66
2024/03/31 14:29:45;;;;;;;76.38;13.15;;;26.10;33.00;;;;;;6156828;28;83899;-64
2024/03/31 14:32:46;;;;;;;79.35;15.02;;;26.00;33.40;;;;;;6157787;28;84127;-65
2024/03/31 14:35:47;;;;;;;83.00;14.15;;;26.00;33.30;;;;;;6152169;28;84950;-67
2024/03/31 14:38:47;;;;;;;75.63;14.10;;;26.00;33.60;;;;;;6132765;28;84535;-64
2024/03/31 14:41:48;;;;;;;79.15;14.45;;;26.00;33.40;;;;;;6151323;28;86183;-68
2024/03/31 14:44:48;;;;;;;87.13;12.93;;;26.00;33.40;;;;;;6153713;28;84398;-65
2024/03/31 14:47:49;;;;;;;80.32;13.20;;;26.00;33.50;;;;;;6150091;28;84105;-62
2024/03/31 14:50:49;;;;;;;80.68;13.90;;;26.00;34.00;;;;;;6148375;28;84201;-57
2024/03/31 14:53:50;;;;;;;64.60;13.98;;;26.00;34.00;;;;;;6149960;28;84339;-58
2024/03/31 14:56:52;;;;;;;80.18;14.18;;;26.00;33.90;;;;;;6159416;28;83309;-56
2024/03/31 14:59:52;;;;;;;85.68;13.43;;;25.90;33.70;;;;;;6162075;28;83189;-53
2024/03/31 15:02:53;;;;;;;83.32;13.18;;;26.00;34.40;;;;;;6160879;28;83305;-52
2024/03/31 15:05:53;;;;;;;78.00;12.88;;;25.90;33.60;;;;;;6159045;28;83176;-55
2024/03/31 15:08:57;;;;;;;83.80;12.15;;;25.90;33.40;;;;;;6153734;28;84089;-53
2024/03/31 15:11:57;;;;;;;55.88;10.52;;;25.80;33.60;;;;;;6147756;28;83742;-55
2024/03/31 15:14:58;;;;;;;61.58;10.43;;;25.80;33.90;;;;;;6147232;28;84558;-55
2024/03/31 15:17:58;;;;;;;66.43;10.90;;;25.80;34.00;;;;;;6147908;28;85090;-58
2024/03/31 15:20:59;;;;;;;82.80;13.77;;;25.90;34.40;;;;;;6153040;28;83360;-51
2024/03/31 15:23:59;;;;;;;73.65;12.57;;;25.90;34.30;;;;;;6150212;28;85615;-54
2024/03/31 15:27:00;;;;;;;73.22;12.32;;;25.90;34.40;;;;;;6150699;28;88108;-62
2024/03/31 15:30:00;;;;;;;69.65;11.43;;;25.90;34.70;;;;;;6151340;28;84155;-62